createdAt,value
2017-06-21T00:01:21.024Z,17.90
2017-06-21T00:03:49.283Z,18.10
2017-06-21T00:06:16.789Z,18.10
2017-06-21T00:08:44.280Z,18.00
2017-06-21T00:11:12.076Z,17.80
2017-06-21T00:13:40.346Z,17.80
2017-06-21T00:16:07.844Z,17.80
2017-06-21T00:18:35.392Z,17.70
2017-06-21T00:21:02.881Z,17.60
2017-06-21T00:23:30.412Z,17.60
2017-06-21T00:25:57.927Z,17.80
2017-06-21T00:28:25.432Z,17.80
2017-06-21T00:30:52.929Z,17.80
2017-06-21T00:33:20.697Z,17.70
2017-06-21T00:35:48.205Z,17.40
2017-06-21T00:38:15.722Z,17.30
2017-06-21T00:40:43.537Z,17.30
2017-06-21T00:43:11.040Z,17.30
2017-06-21T00:45:38.524Z,17.20
2017-06-21T00:48:06.036Z,17.40
2017-06-21T00:50:33.541Z,17.20
2017-06-21T00:53:01.328Z,17.30
2017-06-21T00:55:28.855Z,17.20
2017-06-21T00:57:56.343Z,17.20
2017-06-21T01:00:23.861Z,16.90
2017-06-21T01:02:51.383Z,16.90
2017-06-21T01:05:19.166Z,17.00
2017-06-21T01:07:46.664Z,17.10
2017-06-21T01:10:14.164Z,17.10
2017-06-21T01:12:41.680Z,17.10
2017-06-21T01:15:09.180Z,16.90
2017-06-21T01:17:36.958Z,17.10
2017-06-21T01:20:04.460Z,17.20
2017-06-21T01:22:31.965Z,17.00
2017-06-21T01:24:59.480Z,16.90
2017-06-21T01:27:26.983Z,16.80
2017-06-21T01:29:54.771Z,16.70
2017-06-21T01:32:22.300Z,16.60
2017-06-21T01:34:50.552Z,16.50
2017-06-21T01:37:18.071Z,16.40
2017-06-21T01:39:45.569Z,16.80
2017-06-21T01:42:13.360Z,16.50
2017-06-21T01:44:40.856Z,16.60
2017-06-21T01:47:08.341Z,16.50
2017-06-21T01:49:35.845Z,16.50
2017-06-21T01:52:03.331Z,16.60
2017-06-21T01:54:31.106Z,16.50
2017-06-21T01:56:58.710Z,16.40
2017-06-21T01:59:26.967Z,16.40
2017-06-21T02:01:54.470Z,16.30
2017-06-21T02:04:22.104Z,16.30
2017-06-21T02:06:49.872Z,16.40
2017-06-21T02:09:17.367Z,16.00
2017-06-21T02:11:44.864Z,16.20
2017-06-21T02:14:12.372Z,16.20
2017-06-21T02:16:39.881Z,16.20
2017-06-21T02:19:07.672Z,16.10
2017-06-21T02:21:35.167Z,16.10
2017-06-21T02:24:02.660Z,16.20
2017-06-21T02:26:30.181Z,16.20
2017-06-21T02:28:57.679Z,16.20
2017-06-21T02:31:25.460Z,16.10
2017-06-21T02:33:52.952Z,15.90
2017-06-21T02:36:20.456Z,16.00
2017-06-21T02:38:47.968Z,15.70
2017-06-21T02:41:15.470Z,15.80
2017-06-21T02:43:43.302Z,15.90
2017-06-21T02:46:10.804Z,15.60
2017-06-21T02:48:38.300Z,15.90
2017-06-21T02:51:06.569Z,15.80
2017-06-21T02:53:34.067Z,15.80
2017-06-21T02:56:01.979Z,15.80
2017-06-21T02:58:29.478Z,15.70
2017-06-21T03:00:56.976Z,15.80
2017-06-21T03:03:24.481Z,15.50
2017-06-21T03:05:51.986Z,15.70
2017-06-21T03:08:19.789Z,15.60
2017-06-21T03:10:47.286Z,15.70
2017-06-21T03:13:14.786Z,15.70
2017-06-21T03:15:42.311Z,15.60
2017-06-21T03:18:09.809Z,15.60
2017-06-21T03:20:37.631Z,15.40
2017-06-21T03:23:06.036Z,15.30
2017-06-21T03:25:33.526Z,15.40
2017-06-21T03:28:01.028Z,15.40
2017-06-21T03:30:28.523Z,15.20
2017-06-21T03:32:56.320Z,15.40
2017-06-21T03:35:23.828Z,15.40
2017-06-21T03:37:51.324Z,15.50
2017-06-21T03:40:18.852Z,15.50
2017-06-21T03:42:46.351Z,15.10
2017-06-21T03:45:14.139Z,15.20
2017-06-21T03:47:41.659Z,15.40
2017-06-21T03:50:09.158Z,15.40
2017-06-21T03:52:36.672Z,15.60
2017-06-21T03:55:04.179Z,15.70
2017-06-21T03:57:31.957Z,15.60
2017-06-21T03:59:59.460Z,15.50
2017-06-21T04:02:26.961Z,15.60
2017-06-21T04:04:54.464Z,15.60
2017-06-21T04:07:21.965Z,15.30
2017-06-21T04:09:50.288Z,15.60
2017-06-21T04:12:17.788Z,15.70
2017-06-21T04:14:45.284Z,15.90
2017-06-21T04:17:12.783Z,15.90
2017-06-21T04:19:40.287Z,15.90
2017-06-21T04:22:08.072Z,15.90
2017-06-21T04:24:35.569Z,16.00
2017-06-21T04:27:03.064Z,15.80
2017-06-21T04:29:30.580Z,16.10
2017-06-21T04:31:58.080Z,15.80
2017-06-21T04:34:25.863Z,16.10
2017-06-21T04:36:53.367Z,16.20
2017-06-21T04:39:20.869Z,16.40
2017-06-21T04:41:48.385Z,16.20
2017-06-21T04:44:15.887Z,16.30
2017-06-21T04:46:43.664Z,16.50
2017-06-21T04:49:11.161Z,16.40
2017-06-21T04:51:38.669Z,16.50
2017-06-21T04:54:06.944Z,16.70
2017-06-21T04:56:34.437Z,16.70
2017-06-21T04:59:02.243Z,16.70
2017-06-21T05:01:29.750Z,16.30
2017-06-21T05:03:57.252Z,16.10
2017-06-21T05:06:24.773Z,16.20
2017-06-21T05:08:52.276Z,16.10
2017-06-21T05:11:20.092Z,16.20
2017-06-21T05:13:47.583Z,16.80
2017-06-21T05:16:15.084Z,16.50
2017-06-21T05:18:42.591Z,17.00
2017-06-21T05:21:10.089Z,17.40
2017-06-21T05:23:37.607Z,17.20
2017-06-21T05:26:06.226Z,17.40
2017-06-21T05:28:33.732Z,17.20
2017-06-21T05:31:01.515Z,17.30
2017-06-21T05:33:29.009Z,17.50
2017-06-21T05:35:56.507Z,17.50
2017-06-21T05:38:25.037Z,17.50
2017-06-21T05:40:52.542Z,17.50
2017-06-21T05:43:20.040Z,17.50
2017-06-21T05:45:47.586Z,17.20
2017-06-21T05:48:15.075Z,17.30
2017-06-21T05:50:42.907Z,17.80
2017-06-21T05:53:10.416Z,17.60
2017-06-21T05:55:37.916Z,17.40
2017-06-21T05:58:05.426Z,18.00
2017-06-21T06:00:32.923Z,17.90
2017-06-21T06:03:00.720Z,18.10
2017-06-21T06:05:28.224Z,18.10
2017-06-21T06:07:55.737Z,18.00
2017-06-21T06:10:23.244Z,18.30
2017-06-21T06:12:50.737Z,17.70
2017-06-21T06:15:19.336Z,18.30
2017-06-21T06:17:46.850Z,18.30
2017-06-21T06:20:14.363Z,19.00
2017-06-21T06:22:41.979Z,18.80
2017-06-21T06:25:10.244Z,17.80
2017-06-21T06:27:38.024Z,17.80
2017-06-21T06:30:05.516Z,18.50
2017-06-21T06:32:33.019Z,18.80
2017-06-21T06:35:00.541Z,18.80
2017-06-21T06:37:28.080Z,18.70
2017-06-21T06:39:55.860Z,18.10
2017-06-21T06:42:23.355Z,18.80
2017-06-21T06:44:50.868Z,18.60
2017-06-21T06:47:18.375Z,19.20
2017-06-21T06:49:45.872Z,19.20
2017-06-21T06:52:14.401Z,19.40
2017-06-21T06:54:41.947Z,19.40
2017-06-21T06:57:09.485Z,19.20
2017-06-21T06:59:37.753Z,19.50
2017-06-21T07:02:06.021Z,19.10
2017-06-21T07:04:33.780Z,19.10
2017-06-21T07:07:01.273Z,19.50
2017-06-21T07:09:28.778Z,19.50
2017-06-21T07:11:56.286Z,19.20
2017-06-21T07:14:23.775Z,19.60
2017-06-21T07:16:51.556Z,19.50
2017-06-21T07:19:19.064Z,19.80
2017-06-21T07:21:46.565Z,20.30
2017-06-21T07:24:14.088Z,19.50
2017-06-21T07:26:41.600Z,19.90
2017-06-21T07:29:09.403Z,20.30
2017-06-21T07:31:37.673Z,20.70
2017-06-21T07:34:05.939Z,20.50
2017-06-21T07:36:33.453Z,20.40
2017-06-21T07:39:02.076Z,19.70
2017-06-21T07:41:29.841Z,19.70
2017-06-21T07:43:57.342Z,20.40
2017-06-21T07:46:24.843Z,20.20
2017-06-21T07:48:52.379Z,19.90
2017-06-21T07:51:20.662Z,20.30
2017-06-21T07:53:48.451Z,20.30
2017-06-21T07:56:15.949Z,20.50
2017-06-21T07:58:43.450Z,21.20
2017-06-21T08:11:07.419Z,20.80
2017-06-21T08:13:34.935Z,20.90
2017-06-21T08:16:02.427Z,21.40
2017-06-21T08:18:30.192Z,21.20
2017-06-21T08:23:26.537Z,21.70
2017-06-21T08:48:14.400Z,22.20
2017-06-21T08:50:41.940Z,22.60
2017-06-21T08:53:10.217Z,22.40
2017-06-21T08:55:37.980Z,22.40
2017-06-21T08:58:05.479Z,22.80
2017-06-21T09:00:32.991Z,22.50
2017-06-21T09:03:00.491Z,23.20
2017-06-21T09:05:27.987Z,23.00
2017-06-21T09:07:55.818Z,23.30
2017-06-21T09:10:24.079Z,23.20
2017-06-21T09:12:51.588Z,22.90
2017-06-21T09:15:19.107Z,23.70
2017-06-21T09:17:46.612Z,23.00
2017-06-21T09:20:14.401Z,23.00
2017-06-21T09:22:41.915Z,22.40
2017-06-21T09:25:09.408Z,22.90
2017-06-21T09:27:36.916Z,23.00
2017-06-21T09:30:04.413Z,23.10
2017-06-21T09:32:32.254Z,22.90
2017-06-21T09:42:26.309Z,22.80
2017-06-21T09:44:54.101Z,22.90
2017-06-21T09:47:22.375Z,23.40
2017-06-21T09:49:49.876Z,23.30
2017-06-21T09:52:17.393Z,23.30
2017-06-21T10:07:09.449Z,24.40
2017-06-21T10:22:01.781Z,23.20
2017-06-21T10:24:29.297Z,23.80
2017-06-21T10:26:56.801Z,24.30
2017-06-21T10:29:24.315Z,23.90
2017-06-21T10:31:52.577Z,24.60
2017-06-21T10:34:20.441Z,24.60
2017-06-21T10:36:47.937Z,24.70
2017-06-21T10:39:15.448Z,24.80
2017-06-21T10:41:42.958Z,24.40
2017-06-21T10:44:10.467Z,24.70
2017-06-21T10:46:38.258Z,24.50
2017-06-21T10:49:05.776Z,24.40
2017-06-21T10:51:33.290Z,24.50
2017-06-21T10:54:01.573Z,24.60
2017-06-21T10:56:29.839Z,24.50
2017-06-21T10:58:57.630Z,24.50
2017-06-21T11:03:53.994Z,24.20
2017-06-21T11:06:21.511Z,24.90
2017-06-21T11:08:49.784Z,25.80
2017-06-21T11:11:17.577Z,25.80
2017-06-21T11:23:40.825Z,25.60
2017-06-21T11:26:08.339Z,25.80
2017-06-21T11:28:35.848Z,26.30
2017-06-21T11:31:03.364Z,25.70
2017-06-21T11:33:31.656Z,25.90
2017-06-21T11:35:59.447Z,25.80
2017-06-21T11:38:26.938Z,25.10
2017-06-21T11:40:54.437Z,25.50
2017-06-21T11:43:21.946Z,25.80
2017-06-21T11:45:49.448Z,25.30
2017-06-21T11:48:18.012Z,26.80
2017-06-21T11:50:45.516Z,26.70
2017-06-21T11:53:13.007Z,26.50
2017-06-21T11:55:40.532Z,25.90
2017-06-21T11:58:08.032Z,26.60
2017-06-21T12:00:37.001Z,25.60
2017-06-21T12:03:04.502Z,25.50
2017-06-21T12:05:32.016Z,25.90
2017-06-21T12:07:59.816Z,26.70
2017-06-21T12:10:27.329Z,26.70
2017-06-21T12:12:54.828Z,26.40
2017-06-21T12:15:23.491Z,25.70
2017-06-21T12:17:50.985Z,25.80
2017-06-21T12:20:18.497Z,26.80
2017-06-21T12:22:46.302Z,26.70
2017-06-21T12:25:14.942Z,26.10
2017-06-21T12:27:42.440Z,26.10
2017-06-21T12:30:10.214Z,26.90
2017-06-21T12:32:37.721Z,27.30
2017-06-21T12:35:05.214Z,27.00
2017-06-21T12:37:32.722Z,27.60
2017-06-21T12:40:00.989Z,27.50
2017-06-21T12:42:28.749Z,27.50
2017-06-21T12:44:56.252Z,25.80
2017-06-21T12:47:23.753Z,26.80
2017-06-21T12:49:51.269Z,26.80
2017-06-21T12:52:19.930Z,25.80
2017-06-21T12:54:47.719Z,25.80
2017-06-21T12:57:15.232Z,25.80
2017-06-21T12:59:42.754Z,27.10
2017-06-21T13:02:10.277Z,27.30
2017-06-21T13:04:38.552Z,27.60
2017-06-21T13:07:06.330Z,27.60
2017-06-21T13:09:33.838Z,28.30
2017-06-21T13:12:02.493Z,26.60
2017-06-21T13:14:30.019Z,26.60
2017-06-21T13:16:58.287Z,28.00
2017-06-21T13:19:26.080Z,27.90
2017-06-21T13:21:53.588Z,27.70
2017-06-21T13:24:22.220Z,27.00
2017-06-21T13:29:18.583Z,26.80
2017-06-21T13:31:46.459Z,27.00
2017-06-21T13:34:13.952Z,26.90
2017-06-21T13:36:42.603Z,27.10
2017-06-21T13:39:10.097Z,27.10
2017-06-21T13:41:37.593Z,26.90
2017-06-21T13:44:06.210Z,26.90
2017-06-21T13:46:33.717Z,26.90
2017-06-21T13:49:02.631Z,26.80
2017-06-21T13:51:30.144Z,26.80
2017-06-21T13:53:57.651Z,26.40
2017-06-21T13:56:25.446Z,26.40
2017-06-21T13:58:52.947Z,26.50
2017-06-21T14:01:20.454Z,26.60
2017-06-21T14:03:47.991Z,26.50
2017-06-21T14:06:15.484Z,26.90
2017-06-21T14:08:43.267Z,27.10
2017-06-21T14:13:41.134Z,26.20
2017-06-21T14:16:08.652Z,26.20
2017-06-21T14:18:36.912Z,26.80
2017-06-21T14:21:04.685Z,26.80
2017-06-21T14:23:32.181Z,26.40
2017-06-21T14:25:59.701Z,26.30
2017-06-21T14:28:27.237Z,26.30
2017-06-21T14:30:54.747Z,26.60
2017-06-21T14:33:23.355Z,26.10
2017-06-21T14:45:46.993Z,26.20
2017-06-21T14:48:14.499Z,26.60
2017-06-21T14:50:42.017Z,27.00
2017-06-21T14:53:09.533Z,26.40
2017-06-21T14:55:37.030Z,26.50
2017-06-21T14:58:04.829Z,26.30
2017-06-21T15:00:32.340Z,26.80
2017-06-21T15:02:59.899Z,25.50
2017-06-21T15:05:27.412Z,26.40
2017-06-21T15:07:54.916Z,27.10
2017-06-21T15:10:23.460Z,26.90
2017-06-21T15:12:50.965Z,26.90
2017-06-21T15:15:18.457Z,27.30
2017-06-21T15:17:45.984Z,26.50
2017-06-21T15:20:13.468Z,26.40
2017-06-21T15:22:41.269Z,26.20
2017-06-21T15:25:08.775Z,25.60
2017-06-21T15:27:36.277Z,26.10
2017-06-21T15:30:03.807Z,26.10
2017-06-21T15:32:31.301Z,26.20
2017-06-21T15:34:59.066Z,26.40
2017-06-21T15:37:26.556Z,26.80
2017-06-21T15:39:54.070Z,26.10
2017-06-21T15:42:21.717Z,25.40
2017-06-21T15:44:49.240Z,25.50
2017-06-21T15:49:45.854Z,25.70
2017-06-21T15:52:13.384Z,26.40
2017-06-21T15:54:40.889Z,26.30
2017-06-21T15:57:08.388Z,26.40
2017-06-21T15:59:36.153Z,26.40
2017-06-21T16:04:32.501Z,25.80
2017-06-21T16:11:58.400Z,26.30
2017-06-21T16:39:15.852Z,24.30
2017-06-21T16:41:43.372Z,24.30
2017-06-21T16:44:10.884Z,25.10
2017-06-21T16:46:38.387Z,25.30
2017-06-21T16:49:06.145Z,25.20
2017-06-21T16:51:33.652Z,25.10
2017-06-21T16:54:01.931Z,25.30
2017-06-21T16:56:29.441Z,25.30
2017-06-21T16:58:56.950Z,25.20
2017-06-21T17:01:24.749Z,24.80
2017-06-21T17:03:52.270Z,24.80
2017-06-21T17:06:19.784Z,24.30
2017-06-21T17:08:47.320Z,24.50
2017-06-21T17:11:14.818Z,24.20
2017-06-21T17:13:42.609Z,24.20
2017-06-21T17:16:10.110Z,24.40
2017-06-21T17:18:37.607Z,24.40
2017-06-21T17:21:05.116Z,24.50
2017-06-21T17:23:32.624Z,24.80
2017-06-21T17:26:00.437Z,24.60
2017-06-21T17:28:27.940Z,24.70
2017-06-21T17:30:55.453Z,24.50
2017-06-21T17:33:22.973Z,24.30
2017-06-21T17:35:50.535Z,24.00
2017-06-21T17:38:18.326Z,24.50
2017-06-21T17:40:45.832Z,24.50
2017-06-21T17:43:13.336Z,24.70
2017-06-21T17:45:40.844Z,24.30
2017-06-21T17:48:08.341Z,24.20
2017-06-21T17:50:36.143Z,23.90
2017-06-21T17:53:03.658Z,24.00
2017-06-21T17:55:31.179Z,23.90
2017-06-21T17:57:58.692Z,24.10
2017-06-21T18:00:26.208Z,23.90
2017-06-21T18:02:54.004Z,23.70
2017-06-21T18:05:21.623Z,23.50
2017-06-21T18:07:49.129Z,23.30
2017-06-21T18:10:16.639Z,23.30
2017-06-21T18:12:44.149Z,23.50
2017-06-21T18:15:11.946Z,23.50
2017-06-21T18:17:39.446Z,23.60
2017-06-21T18:20:06.943Z,23.50
2017-06-21T18:22:35.484Z,23.20
2017-06-21T18:25:02.992Z,23.20
2017-06-21T18:27:30.487Z,23.40
2017-06-21T18:29:58.242Z,23.20
2017-06-21T18:32:25.732Z,23.10
2017-06-21T18:34:53.256Z,23.10
2017-06-21T18:37:20.781Z,23.10
2017-06-21T18:39:49.073Z,23.10
2017-06-21T18:42:16.851Z,23.10
2017-06-21T18:44:44.376Z,23.20
2017-06-21T18:47:11.891Z,23.00
2017-06-21T18:49:39.402Z,22.80
2017-06-21T18:52:06.905Z,22.90
2017-06-21T18:54:34.769Z,22.70
2017-06-21T18:57:02.376Z,22.60
2017-06-21T18:59:29.879Z,22.70
2017-06-21T19:01:57.404Z,22.70
2017-06-21T19:04:24.912Z,22.60
2017-06-21T19:06:52.781Z,22.50
2017-06-21T19:09:20.301Z,22.40
2017-06-21T19:11:48.590Z,22.20
2017-06-21T19:14:16.124Z,22.20
2017-06-21T19:16:43.633Z,22.20
2017-06-21T19:19:11.436Z,22.10
2017-06-21T19:21:40.071Z,22.30
2017-06-21T19:24:07.572Z,22.30
2017-06-21T19:26:35.085Z,21.90
2017-06-21T19:29:02.596Z,21.90
2017-06-21T19:31:30.493Z,21.80
2017-06-21T19:33:57.996Z,21.80
2017-06-21T19:36:25.497Z,21.90
2017-06-21T19:38:53.008Z,21.80
2017-06-21T19:41:20.514Z,21.60
2017-06-21T19:43:48.276Z,21.60
2017-06-21T19:46:15.802Z,21.60
2017-06-21T19:48:43.296Z,21.50
2017-06-21T19:51:10.828Z,21.60
2017-06-21T19:53:38.344Z,21.50
2017-06-21T19:56:06.115Z,21.50
2017-06-21T19:58:33.639Z,21.40
2017-06-21T20:01:01.140Z,21.40
2017-06-21T20:03:28.669Z,21.40
2017-06-21T20:05:56.197Z,21.40
2017-06-21T20:08:23.986Z,21.50
2017-06-21T20:10:51.509Z,21.60
2017-06-21T20:13:19.014Z,21.90
2017-06-21T20:15:46.528Z,21.50
2017-06-21T20:18:14.041Z,21.50
2017-06-21T20:20:41.843Z,21.40
2017-06-21T20:23:09.352Z,21.20
2017-06-21T20:25:36.958Z,21.10
2017-06-21T20:28:04.483Z,21.10
2017-06-21T20:30:31.981Z,21.10
2017-06-21T20:32:59.825Z,21.00
2017-06-21T20:35:27.322Z,21.00
2017-06-21T20:37:54.849Z,21.00
2017-06-21T20:40:22.388Z,21.10
2017-06-21T20:42:49.891Z,21.10
2017-06-21T20:45:17.667Z,21.50
2017-06-21T20:47:45.184Z,21.30
2017-06-21T20:50:13.446Z,21.20
2017-06-21T20:52:40.969Z,21.10
2017-06-21T20:55:08.499Z,21.20
2017-06-21T20:57:36.298Z,21.10
2017-06-21T21:00:03.810Z,21.20
2017-06-21T21:02:31.322Z,21.30
2017-06-21T21:04:58.834Z,21.50
2017-06-21T21:07:26.346Z,21.30
2017-06-21T21:09:54.132Z,21.50
2017-06-21T21:12:21.614Z,21.40
2017-06-21T21:14:49.892Z,21.30
2017-06-21T21:17:18.176Z,21.30
2017-06-21T21:19:45.665Z,21.20
2017-06-21T21:22:13.453Z,21.10
2017-06-21T21:24:40.960Z,21.10
2017-06-21T21:27:08.469Z,21.00
2017-06-21T21:29:36.002Z,21.00
2017-06-21T21:32:03.495Z,20.90
2017-06-21T21:34:31.288Z,20.80
2017-06-21T21:36:59.555Z,20.80
2017-06-21T21:39:27.034Z,20.70
2017-06-21T21:41:54.566Z,20.80
2017-06-21T21:44:22.045Z,20.60
2017-06-21T21:46:49.820Z,20.60
2017-06-21T21:49:17.329Z,20.60
2017-06-21T21:51:44.831Z,20.70
2017-06-21T21:54:12.369Z,20.70
2017-06-21T21:56:39.879Z,20.30
2017-06-21T21:59:07.407Z,20.30
2017-06-21T22:01:34.908Z,20.00
2017-06-21T22:04:02.694Z,20.00
2017-06-21T22:06:30.183Z,19.90
2017-06-21T22:08:57.686Z,19.80
2017-06-21T22:11:25.185Z,19.60
2017-06-21T22:13:52.680Z,19.50
2017-06-21T22:16:20.471Z,19.50
2017-06-21T22:18:47.974Z,19.40
2017-06-21T22:21:15.485Z,19.40
2017-06-21T22:23:42.986Z,19.40
2017-06-21T22:26:10.492Z,19.20
2017-06-21T22:28:38.279Z,19.40
2017-06-21T22:31:05.788Z,19.30
2017-06-21T22:33:33.292Z,19.40
2017-06-21T22:36:00.801Z,19.50
2017-06-21T22:38:28.287Z,19.40
2017-06-21T22:40:56.166Z,19.30
2017-06-21T22:43:23.670Z,19.30
2017-06-21T22:45:51.174Z,19.20
2017-06-21T22:48:18.703Z,19.10
2017-06-21T22:50:46.185Z,19.20
2017-06-21T22:53:13.966Z,18.90
2017-06-21T22:55:41.468Z,18.90
2017-06-21T22:58:08.951Z,18.90
2017-06-21T23:00:36.465Z,19.00
2017-06-21T23:03:03.959Z,18.80
2017-06-21T23:05:31.465Z,18.70
2017-06-21T23:07:59.328Z,18.80
2017-06-21T23:10:26.824Z,18.80
2017-06-21T23:12:54.302Z,18.70
2017-06-21T23:15:21.927Z,18.60
2017-06-21T23:17:49.423Z,18.70
2017-06-21T23:20:17.233Z,18.70
2017-06-21T23:22:44.711Z,18.50
2017-06-21T23:25:12.204Z,18.40
2017-06-21T23:27:39.708Z,18.50
2017-06-21T23:30:07.207Z,18.40
2017-06-21T23:32:34.989Z,18.20
2017-06-21T23:35:02.478Z,18.20
2017-06-21T23:37:29.967Z,18.20
2017-06-21T23:39:57.483Z,18.20
2017-06-21T23:42:24.978Z,18.30
2017-06-21T23:44:52.755Z,18.20
2017-06-21T23:47:20.248Z,18.20
2017-06-21T23:49:47.752Z,18.30
2017-06-21T23:52:15.246Z,18.20
2017-06-21T23:54:42.759Z,18.10
2017-06-21T23:57:10.551Z,18.30
2017-06-21T23:59:38.037Z,18.10
